Time;durP1;ratioP1;P1;durP2;ratioP2;P2;SDS_P1;SDS_P2;PMS_P1;PMS_P2;Temp;Humidity;BMP_temperature;BMP_pressure;BME280_temperature;BME280_humidity;BME280_pressure;Samples;Min_cycle;Max_cycle;Signal;HPM_P1;HPM_P2
2021/08/18 00:01:47;;;;;;;33.78;17.25;;;;;;;;;;5031112;28;20025;-91
2021/08/18 00:04:12;;;;;;;40.28;19.13;;;;;;;;;;5036369;28;20108;-92
2021/08/18 00:06:37;;;;;;;33.28;18.15;;;;;;;;;;5035293;28;20461;-90
2021/08/18 00:09:03;;;;;;;30.75;17.13;;;;;;;;;;5021050;28;20017;-90
2021/08/18 00:11:28;;;;;;;34.88;18.00;;;;;;;;;;5035199;28;20542;-91
2021/08/18 00:13:53;;;;;;;41.25;18.77;;;;;;;;;;5021896;28;20049;-90
2021/08/18 00:16:20;;;;;;;35.92;18.58;;;;;;;;;;5030296;28;20109;-90
2021/08/18 00:18:49;;;;;;;39.20;19.55;;;;;;;;;;5048509;28;20034;-91
2021/08/18 00:21:15;;;;;;;42.70;20.70;;;;;;;;;;5033003;28;20025;-91
2021/08/18 00:23:40;;;;;;;42.15;21.58;;;;;;;;;;5025210;28;20088;-90
2021/08/18 00:26:05;;;;;;;42.67;21.00;;;;;;;;;;5029959;28;20020;-90
2021/08/18 00:28:31;;;;;;;43.55;21.15;;;;;;;;;;5048091;28;20018;-90
2021/08/18 00:30:56;;;;;;;40.28;22.80;;;;;;;;;;5028704;28;20030;-91
2021/08/18 00:33:21;;;;;;;41.90;20.77;;;;;;;;;;5034601;28;20472;-90
2021/08/18 00:35:46;;;;;;;42.28;21.63;;;;;;;;;;5034635;28;20028;-90
2021/08/18 00:38:11;;;;;;;43.90;20.02;;;;;;;;;;5031012;28;20025;-90
2021/08/18 00:40:37;;;;;;;46.78;22.30;;;;;;;;;;5048183;28;20026;-90
2021/08/18 00:43:02;;;;;;;40.70;22.33;;;;;;;;;;5049188;28;20527;-90
2021/08/18 00:45:27;;;;;;;42.60;22.20;;;;;;;;;;5034418;28;20117;-90
2021/08/18 00:47:53;;;;;;;46.78;22.40;;;;;;;;;;5034478;28;20036;-90
2021/08/18 00:50:20;;;;;;;45.58;21.52;;;;;;;;;;5015236;28;20397;-91
2021/08/18 00:52:46;;;;;;;48.83;22.98;;;;;;;;;;5014587;28;20028;-91
2021/08/18 00:55:12;;;;;;;46.65;22.42;;;;;;;;;;5018223;28;20385;-89
2021/08/18 00:57:38;;;;;;;41.97;21.73;;;;;;;;;;5034434;28;20028;-90
2021/08/18 01:00:05;;;;;;;44.13;22.75;;;;;;;;;;5033987;28;20109;-91
2021/08/18 01:02:31;;;;;;;46.83;22.10;;;;;;;;;;5026640;28;20033;-91
2021/08/18 01:04:56;;;;;;;47.75;22.73;;;;;;;;;;5014341;28;20040;-90
2021/08/18 01:07:21;;;;;;;40.22;21.38;;;;;;;;;;5027600;28;20022;-90
2021/08/18 01:09:46;;;;;;;44.65;21.85;;;;;;;;;;5025691;28;20021;-91
2021/08/18 01:12:12;;;;;;;41.30;21.55;;;;;;;;;;5034868;28;20067;-90
2021/08/18 01:14:38;;;;;;;48.20;22.42;;;;;;;;;;5014249;28;20018;-90
2021/08/18 01:17:03;;;;;;;45.03;22.52;;;;;;;;;;5047270;28;20367;-90
2021/08/18 01:19:28;;;;;;;50.05;22.77;;;;;;;;;;5018456;28;20022;-90
2021/08/18 01:21:53;;;;;;;44.63;20.73;;;;;;;;;;5024607;28;20113;-90
2021/08/18 01:24:21;;;;;;;52.75;22.83;;;;;;;;;;5013716;28;20037;-90
2021/08/18 01:26:46;;;;;;;48.95;23.27;;;;;;;;;;5021313;28;20484;-90
2021/08/18 01:29:12;;;;;;;47.28;23.02;;;;;;;;;;5033484;28;20018;-91
2021/08/18 01:31:37;;;;;;;45.63;22.80;;;;;;;;;;5027822;28;20018;-91
2021/08/18 01:34:04;;;;;;;45.80;21.95;;;;;;;;;;5013597;28;20462;-91
2021/08/18 01:36:29;;;;;;;52.42;22.88;;;;;;;;;;5011599;28;20021;-90
2021/08/18 01:39:02;;;;;;;43.03;22.13;;;;;;;;;;4999954;28;20026;-90
2021/08/18 01:41:27;;;;;;;41.58;21.33;;;;;;;;;;5010750;28;20018;-90
2021/08/18 01:43:52;;;;;;;44.17;21.52;;;;;;;;;;5013384;28;20367;-90
2021/08/18 01:46:17;;;;;;;42.45;20.38;;;;;;;;;;5013268;28;20033;-90
2021/08/18 01:48:43;;;;;;;46.55;22.08;;;;;;;;;;5013098;28;20531;-91
2021/08/18 01:51:08;;;;;;;45.10;21.60;;;;;;;;;;5013475;28;20040;-90
2021/08/18 01:53:34;;;;;;;50.33;19.90;;;;;;;;;;5046554;28;20026;-90
2021/08/18 01:56:00;;;;;;;44.08;21.42;;;;;;;;;;5013209;28;20084;-90
2021/08/18 01:58:26;;;;;;;40.88;19.27;;;;;;;;;;5013428;28;20030;-90
2021/08/18 02:00:51;;;;;;;47.15;20.38;;;;;;;;;;5013100;28;20350;-91
2021/08/18 02:03:16;;;;;;;42.13;21.48;;;;;;;;;;5013485;28;20425;-90
2021/08/18 02:05:41;;;;;;;45.35;21.23;;;;;;;;;;5013310;28;20025;-90
2021/08/18 02:08:07;;;;;;;47.80;22.92;;;;;;;;;;5013262;28;20034;-90
2021/08/18 02:10:32;;;;;;;51.10;22.73;;;;;;;;;;5046021;28;20024;-90
2021/08/18 02:12:57;;;;;;;43.83;20.40;;;;;;;;;;5045867;28;20038;-91
2021/08/18 02:15:24;;;;;;;45.97;21.50;;;;;;;;;;5012847;28;20112;-91
2021/08/18 02:17:50;;;;;;;45.47;20.42;;;;;;;;;;5045127;28;20453;-90
2021/08/18 02:20:17;;;;;;;41.05;20.23;;;;;;;;;;5046335;28;20025;-90
2021/08/18 02:22:42;;;;;;;48.40;22.30;;;;;;;;;;5013209;28;20484;-91
2021/08/18 02:25:08;;;;;;;44.03;19.88;;;;;;;;;;5014023;28;20014;-90
2021/08/18 02:27:33;;;;;;;47.28;21.90;;;;;;;;;;5014217;28;20088;-90
2021/08/18 02:29:58;;;;;;;41.42;20.27;;;;;;;;;;5012934;28;20029;-90
2021/08/18 02:32:23;;;;;;;46.38;21.85;;;;;;;;;;5013015;28;20025;-90
2021/08/18 02:34:49;;;;;;;41.25;19.80;;;;;;;;;;5012905;28;20026;-90
2021/08/18 02:37:14;;;;;;;45.38;20.98;;;;;;;;;;5013225;28;20469;-90
2021/08/18 02:39:39;;;;;;;46.40;20.48;;;;;;;;;;5045928;28;20037;-91
2021/08/18 02:42:05;;;;;;;42.45;20.90;;;;;;;;;;5012777;28;20018;-90
2021/08/18 02:44:30;;;;;;;39.80;20.25;;;;;;;;;;5012750;28;20018;-90
2021/08/18 02:46:55;;;;;;;44.60;21.30;;;;;;;;;;5012663;28;20084;-90
2021/08/18 02:49:21;;;;;;;41.20;21.02;;;;;;;;;;5013948;28;20098;-91
2021/08/18 02:51:46;;;;;;;44.05;20.60;;;;;;;;;;5045961;28;20025;-90
2021/08/18 02:54:11;;;;;;;47.45;21.63;;;;;;;;;;5012580;28;20022;-90
2021/08/18 02:56:37;;;;;;;40.58;17.95;;;;;;;;;;5012698;28;20022;-90
2021/08/18 02:59:02;;;;;;;46.47;20.00;;;;;;;;;;5045610;28;20028;-90
2021/08/18 03:01:27;;;;;;;39.35;19.23;;;;;;;;;;5012726;28;20386;-91
2021/08/18 03:03:52;;;;;;;41.63;19.67;;;;;;;;;;5012428;28;20481;-90
2021/08/18 03:06:17;;;;;;;40.63;20.02;;;;;;;;;;5012364;28;20031;-90
2021/08/18 03:08:43;;;;;;;46.05;20.92;;;;;;;;;;5012716;28;20023;-90
2021/08/18 03:11:08;;;;;;;47.90;20.52;;;;;;;;;;5012463;28;20492;-90
2021/08/18 03:13:33;;;;;;;44.03;19.85;;;;;;;;;;5045554;28;20112;-90
2021/08/18 03:15:58;;;;;;;40.90;18.83;;;;;;;;;;5045378;28;20033;-90
2021/08/18 03:18:24;;;;;;;43.05;19.98;;;;;;;;;;5012520;28;20022;-90
2021/08/18 03:20:49;;;;;;;37.60;18.17;;;;;;;;;;5012478;28;20021;-91
2021/08/18 03:23:15;;;;;;;40.67;19.35;;;;;;;;;;5045748;28;20075;-90
2021/08/18 03:25:40;;;;;;;42.75;18.75;;;;;;;;;;5012368;28;20502;-90
2021/08/18 03:28:05;;;;;;;40.75;18.38;;;;;;;;;;5012815;28;20010;-90
2021/08/18 03:30:30;;;;;;;35.80;18.25;;;;;;;;;;5016113;28;20025;-90
2021/08/18 03:32:55;;;;;;;40.08;19.05;;;;;;;;;;5049069;28;20029;-90
2021/08/18 03:35:21;;;;;;;48.97;18.42;;;;;;;;;;5016013;28;20040;-90
2021/08/18 03:37:46;;;;;;;43.10;18.13;;;;;;;;;;5016067;28;20099;-90
2021/08/18 03:40:11;;;;;;;40.85;18.73;;;;;;;;;;5015817;28;20022;-91
2021/08/18 03:42:37;;;;;;;45.50;20.92;;;;;;;;;;5016260;28;20033;-90
2021/08/18 03:45:02;;;;;;;38.78;19.30;;;;;;;;;;5015567;28;20018;-90
2021/08/18 03:47:27;;;;;;;42.35;19.38;;;;;;;;;;5015530;28;20026;-90
2021/08/18 03:49:53;;;;;;;41.42;19.17;;;;;;;;;;5015731;28;20523;-90
2021/08/18 03:52:18;;;;;;;45.42;20.70;;;;;;;;;;5015474;28;20021;-90
2021/08/18 03:54:43;;;;;;;39.72;19.88;;;;;;;;;;5015712;28;20088;-90
2021/08/18 03:57:08;;;;;;;48.15;25.30;;;;;;;;;;5016593;28;20445;-90
2021/08/18 03:59:34;;;;;;;43.85;19.73;;;;;;;;;;5048724;28;20022;-90
2021/08/18 04:01:59;;;;;;;44.33;19.42;;;;;;;;;;5015616;28;20492;-90
2021/08/18 04:04:24;;;;;;;45.33;20.55;;;;;;;;;;5015091;28;20028;-91
2021/08/18 04:06:49;;;;;;;44.50;19.35;;;;;;;;;;5015266;28;20021;-90
2021/08/18 04:09:14;;;;;;;40.80;19.27;;;;;;;;;;5014955;28;20018;-90
2021/08/18 04:11:40;;;;;;;45.35;21.38;;;;;;;;;;5015175;28;20076;-91
2021/08/18 04:14:05;;;;;;;44.60;21.13;;;;;;;;;;5014967;28;20114;-90
2021/08/18 04:16:30;;;;;;;43.65;19.23;;;;;;;;;;5015052;28;20022;-91
2021/08/18 04:18:55;;;;;;;45.63;21.98;;;;;;;;;;5015021;28;20029;-90
2021/08/18 04:21:21;;;;;;;43.97;20.67;;;;;;;;;;5014613;28;20018;-91
2021/08/18 04:23:46;;;;;;;37.85;17.35;;;;;;;;;;5015973;28;20064;-90
2021/08/18 04:26:12;;;;;;;46.38;20.30;;;;;;;;;;5014509;28;20021;-91
2021/08/18 04:28:37;;;;;;;41.95;20.17;;;;;;;;;;5014862;28;20489;-90
2021/08/18 04:31:02;;;;;;;35.03;17.05;;;;;;;;;;5047938;28;20045;-90
2021/08/18 04:33:27;;;;;;;35.05;17.90;;;;;;;;;;5014894;28;20026;-90
2021/08/18 04:35:53;;;;;;;32.95;16.75;;;;;;;;;;5014791;28;20033;-90
2021/08/18 04:38:18;;;;;;;30.73;16.45;;;;;;;;;;5014716;28;20025;-90
2021/08/18 04:40:43;;;;;;;37.15;17.15;;;;;;;;;;5014091;28;20108;-90
2021/08/18 04:43:12;;;;;;;29.75;15.25;;;;;;;;;;5014469;28;20045;-89
2021/08/18 04:45:38;;;;;;;28.10;13.45;;;;;;;;;;5014365;28;20020;-91
2021/08/18 04:48:03;;;;;;;31.92;15.50;;;;;;;;;;5014459;28;20018;-91
2021/08/18 04:50:28;;;;;;;30.52;15.75;;;;;;;;;;5014578;28;20030;-90
2021/08/18 04:52:54;;;;;;;27.33;14.65;;;;;;;;;;5014553;28;20014;-90
2021/08/18 04:55:19;;;;;;;26.92;14.65;;;;;;;;;;5015530;28;20029;-91
2021/08/18 04:57:44;;;;;;;31.27;15.23;;;;;;;;;;5014460;28;20535;-90
2021/08/18 05:00:10;;;;;;;29.58;15.15;;;;;;;;;;5047619;28;20136;-91
2021/08/18 05:02:35;;;;;;;34.72;16.83;;;;;;;;;;5013912;28;20024;-90
2021/08/18 05:05:01;;;;;;;35.50;16.65;;;;;;;;;;5014250;28;20105;-91
2021/08/18 05:07:27;;;;;;;34.35;14.93;;;;;;;;;;5014175;28;20018;-90
2021/08/18 05:09:52;;;;;;;32.38;15.63;;;;;;;;;;5014379;28;20151;-90
2021/08/18 05:12:20;;;;;;;33.80;16.70;;;;;;;;;;5014137;28;20021;-90
2021/08/18 05:14:46;;;;;;;38.05;16.90;;;;;;;;;;5014221;28;20492;-90
2021/08/18 05:17:11;;;;;;;35.42;16.65;;;;;;;;;;5014109;28;20026;-90
2021/08/18 05:19:36;;;;;;;39.17;16.80;;;;;;;;;;5046907;28;20022;-90
2021/08/18 05:22:02;;;;;;;38.88;17.38;;;;;;;;;;5013897;28;20033;-91
2021/08/18 05:24:27;;;;;;;33.92;16.73;;;;;;;;;;5046847;28;20030;-89
2021/08/18 05:26:52;;;;;;;38.55;18.30;;;;;;;;;;5015110;28;20010;-91
2021/08/18 05:29:18;;;;;;;44.08;17.95;;;;;;;;;;5013915;28;20026;-90
2021/08/18 05:31:43;;;;;;;38.88;17.48;;;;;;;;;;5029117;28;20509;-90
2021/08/18 05:34:08;;;;;;;39.78;19.27;;;;;;;;;;5013776;28;20033;-90
2021/08/18 05:36:33;;;;;;;38.63;18.67;;;;;;;;;;5013543;28;20486;-90
2021/08/18 05:38:58;;;;;;;46.35;20.70;;;;;;;;;;5014922;28;20021;-90
2021/08/18 05:41:24;;;;;;;49.92;19.25;;;;;;;;;;5013541;28;20436;-91
2021/08/18 05:43:49;;;;;;;40.38;18.67;;;;;;;;;;5013468;28;20101;-90
2021/08/18 05:46:14;;;;;;;44.85;20.25;;;;;;;;;;5013185;28;20030;-90
2021/08/18 05:48:39;;;;;;;48.60;20.58;;;;;;;;;;5013327;28;20018;-90
2021/08/18 05:51:07;;;;;;;52.22;21.27;;;;;;;;;;5013558;28;20033;-90
2021/08/18 05:53:33;;;;;;;48.17;22.13;;;;;;;;;;5013307;28;20025;-90
2021/08/18 05:55:58;;;;;;;45.47;19.08;;;;;;;;;;5046102;28;20473;-90
2021/08/18 05:58:23;;;;;;;44.08;18.20;;;;;;;;;;5010012;28;20027;-91
2021/08/18 06:00:48;;;;;;;50.88;23.00;;;;;;;;;;5027390;28;20080;-91
2021/08/18 06:03:13;;;;;;;47.30;19.45;;;;;;;;;;5013363;28;20110;-90
2021/08/18 06:05:39;;;;;;;54.10;21.95;;;;;;;;;;5045631;28;20026;-90
2021/08/18 06:08:04;;;;;;;46.45;20.77;;;;;;;;;;5013239;28;20009;-90
2021/08/18 06:10:30;;;;;;;50.38;19.90;;;;;;;;;;5013246;28;20462;-90
2021/08/18 06:12:55;;;;;;;46.72;21.40;;;;;;;;;;5012973;28;20083;-90
2021/08/18 06:15:20;;;;;;;54.67;22.27;;;;;;;;;;5013077;28;20053;-91
2021/08/18 06:17:47;;;;;;;47.60;20.92;;;;;;;;;;5012886;28;20382;-90
2021/08/18 06:20:13;;;;;;;45.33;20.13;;;;;;;;;;5014165;28;20220;-90
2021/08/18 06:22:38;;;;;;;47.85;20.65;;;;;;;;;;5046177;28;20028;-90
2021/08/18 06:25:04;;;;;;;47.28;19.60;;;;;;;;;;5012823;28;20478;-91
2021/08/18 06:27:30;;;;;;;49.50;21.52;;;;;;;;;;5045989;28;20030;-90
2021/08/18 06:29:55;;;;;;;53.00;21.05;;;;;;;;;;5012910;28;20010;-90
2021/08/18 06:32:21;;;;;;;57.25;21.85;;;;;;;;;;5014047;28;20014;-91
2021/08/18 06:34:46;;;;;;;54.47;21.70;;;;;;;;;;5013100;28;20532;-90
2021/08/18 06:37:11;;;;;;;48.53;20.75;;;;;;;;;;5012695;28;20026;-90
2021/08/18 06:39:37;;;;;;;50.30;22.75;;;;;;;;;;5012640;28;20022;-90
2021/08/18 06:42:03;;;;;;;45.47;20.98;;;;;;;;;;5012983;28;20014;-89
2021/08/18 06:44:28;;;;;;;43.78;19.85;;;;;;;;;;5013711;28;20026;-90
2021/08/18 06:46:53;;;;;;;55.22;22.10;;;;;;;;;;5012583;28;20026;-89
2021/08/18 06:49:19;;;;;;;49.15;20.80;;;;;;;;;;5012550;28;20018;-90
2021/08/18 06:51:44;;;;;;;53.17;21.45;;;;;;;;;;5013790;28;20096;-90
2021/08/18 06:54:09;;;;;;;51.70;20.02;;;;;;;;;;5012707;28;20025;-90
2021/08/18 06:56:35;;;;;;;46.97;20.17;;;;;;;;;;5012619;28;20033;-90
2021/08/18 06:59:00;;;;;;;46.53;20.20;;;;;;;;;;5013535;28;20034;-89
2021/08/18 07:01:26;;;;;;;47.47;19.90;;;;;;;;;;5012548;28;20100;-90
2021/08/18 07:03:51;;;;;;;46.15;19.77;;;;;;;;;;5012296;28;20030;-89
2021/08/18 07:06:17;;;;;;;47.10;19.73;;;;;;;;;;5016137;28;20033;-89
2021/08/18 07:08:42;;;;;;;40.80;17.98;;;;;;;;;;5016351;28;20389;-89
2021/08/18 07:11:07;;;;;;;47.45;18.27;;;;;;;;;;5016283;28;20013;-90
2021/08/18 07:13:32;;;;;;;47.25;20.00;;;;;;;;;;5017427;28;20014;-90
2021/08/18 07:15:58;;;;;;;41.78;18.58;;;;;;;;;;5049190;28;20063;-90
2021/08/18 07:18:23;;;;;;;52.78;19.88;;;;;;;;;;5016144;28;20029;-89
2021/08/18 07:20:49;;;;;;;51.70;21.45;;;;;;;;;;5016056;28;20490;-89
2021/08/18 07:23:14;;;;;;;38.03;15.52;;;;;;;;;;5016096;28;20033;-89
2021/08/18 07:25:39;;;;;;;43.45;17.58;;;;;;;;;;5016032;28;20116;-89
2021/08/18 07:28:05;;;;;;;35.72;17.08;;;;;;;;;;5036061;28;20050;-90
2021/08/18 07:30:30;;;;;;;33.50;15.63;;;;;;;;;;5021662;28;20029;-90
2021/08/18 07:32:55;;;;;;;31.88;14.98;;;;;;;;;;5019758;28;20533;-90
2021/08/18 07:35:20;;;;;;;32.85;14.93;;;;;;;;;;5015677;28;20022;-90
2021/08/18 07:37:47;;;;;;;35.67;16.40;;;;;;;;;;5048979;28;20080;-91
2021/08/18 07:40:12;;;;;;;42.15;18.08;;;;;;;;;;5015762;28;20080;-89
2021/08/18 07:42:37;;;;;;;37.72;15.48;;;;;;;;;;5015829;28;20428;-89
2021/08/18 07:45:03;;;;;;;39.90;16.90;;;;;;;;;;5017647;28;20461;-90
2021/08/18 07:47:28;;;;;;;36.58;16.42;;;;;;;;;;5015610;28;20036;-89
2021/08/18 07:49:53;;;;;;;35.75;15.77;;;;;;;;;;5015635;28;20054;-90
2021/08/18 07:52:19;;;;;;;30.10;16.20;;;;;;;;;;5015341;28;20413;-90
2021/08/18 07:54:46;;;;;;;46.28;18.27;;;;;;;;;;5048664;28;20079;-89
2021/08/18 07:57:11;;;;;;;36.22;16.30;;;;;;;;;;5015299;28;20091;-89
2021/08/18 07:59:36;;;;;;;29.65;14.98;;;;;;;;;;5015058;28;20112;-89
2021/08/18 08:02:02;;;;;;;32.33;15.88;;;;;;;;;;5015545;28;20036;-90
2021/08/18 08:04:27;;;;;;;35.10;15.60;;;;;;;;;;5015281;28;20025;-90
2021/08/18 08:06:52;;;;;;;35.30;16.48;;;;;;;;;;5016503;28;20373;-90
2021/08/18 08:09:18;;;;;;;31.85;14.02;;;;;;;;;;5015096;28;20014;-90
2021/08/18 08:11:43;;;;;;;26.50;14.68;;;;;;;;;;5015002;28;20014;-90
2021/08/18 08:14:08;;;;;;;30.42;14.30;;;;;;;;;;5014895;28;20429;-90
2021/08/18 08:16:34;;;;;;;24.17;13.52;;;;;;;;;;5013630;28;20113;-91
2021/08/18 08:18:59;;;;;;;29.02;14.43;;;;;;;;;;5014959;28;20469;-89
2021/08/18 08:21:25;;;;;;;33.25;15.93;;;;;;;;;;5014620;28;20029;-89
2021/08/18 08:23:50;;;;;;;27.25;13.73;;;;;;;;;;5014731;28;20022;-91
2021/08/18 08:26:15;;;;;;;25.48;13.43;;;;;;;;;;5015423;28;20010;-90
2021/08/18 08:28:40;;;;;;;25.33;13.88;;;;;;;;;;5014625;28;20466;-89
2021/08/18 08:31:05;;;;;;;28.23;13.25;;;;;;;;;;5047528;28;20029;-89
2021/08/18 08:33:31;;;;;;;21.75;12.10;;;;;;;;;;5014530;28;20026;-90
2021/08/18 08:35:56;;;;;;;24.20;13.43;;;;;;;;;;5014744;28;20025;-90
2021/08/18 08:38:21;;;;;;;32.63;12.98;;;;;;;;;;5014479;28;20022;-90
2021/08/18 08:40:47;;;;;;;25.05;11.70;;;;;;;;;;5014826;28;20036;-91
2021/08/18 08:43:13;;;;;;;22.45;12.10;;;;;;;;;;5015966;28;20018;-90
2021/08/18 08:45:39;;;;;;;21.83;11.40;;;;;;;;;;5014122;28;20552;-90
2021/08/18 08:48:05;;;;;;;23.60;12.05;;;;;;;;;;5015621;28;20014;-90
2021/08/18 08:50:31;;;;;;;19.45;11.27;;;;;;;;;;5019697;28;20428;-90
2021/08/18 08:52:56;;;;;;;21.13;12.93;;;;;;;;;;5014186;28;20109;-89
2021/08/18 08:55:21;;;;;;;13.95;7.82;;;;;;;;;;5014097;28;20112;-90
2021/08/18 08:57:51;;;;;;;18.95;10.65;;;;;;;;;;5007957;28;20014;-90
2021/08/18 09:00:16;;;;;;;19.85;12.38;;;;;;;;;;5015967;28;20037;-89
2021/08/18 09:02:42;;;;;;;21.38;10.82;;;;;;;;;;5046077;28;20022;-89
2021/08/18 09:05:07;;;;;;;12.93;7.28;;;;;;;;;;5014231;28;20026;-90
2021/08/18 09:07:32;;;;;;;19.75;10.73;;;;;;;;;;5014127;28;20466;-90
2021/08/18 09:09:59;;;;;;;14.07;7.30;;;;;;;;;;5015852;28;20213;-90
2021/08/18 09:12:30;;;;;;;17.27;9.52;;;;;;;;;;5013001;28;20029;-90
2021/08/18 09:14:55;;;;;;;20.87;9.73;;;;;;;;;;5044580;28;20041;-89
2021/08/18 09:17:27;;;;;;;20.27;10.80;;;;;;;;;;4999550;28;20474;-90
2021/08/18 09:19:56;;;;;;;18.23;10.00;;;;;;;;;;5037645;28;20029;-90
2021/08/18 09:22:22;;;;;;;12.85;7.65;;;;;;;;;;5007070;28;20022;-90
2021/08/18 09:24:47;;;;;;;14.30;10.07;;;;;;;;;;5013875;28;20466;-91
2021/08/18 09:27:12;;;;;;;16.08;8.45;;;;;;;;;;5020873;28;20022;-89
2021/08/18 09:29:37;;;;;;;16.55;8.60;;;;;;;;;;5003868;28;20013;-91
2021/08/18 09:32:38;;;;;;;5.07;2.47;;;;;;;;;;5043455;28;20041;-91
2021/08/18 09:35:07;;;;;;;17.10;7.45;;;;;;;;;;4950417;28;20045;-90
2021/08/18 09:37:33;;;;;;;14.13;7.20;;;;;;;;;;4999720;28;20051;-90
2021/08/18 09:40:00;;;;;;;13.52;8.60;;;;;;;;;;5010561;28;20469;-90
2021/08/18 09:42:32;;;;;;;14.95;7.65;;;;;;;;;;5018743;28;20026;-90
2021/08/18 09:45:27;;;;;;;14.20;7.93;;;;;;;;;;5016299;28;20034;-91
2021/08/18 09:47:53;;;;;;;14.30;8.68;;;;;;;;;;5003720;28;20084;-90
2021/08/18 09:50:21;;;;;;;14.57;7.88;;;;;;;;;;5010608;28;20113;-89
2021/08/18 09:52:46;;;;;;;14.32;8.18;;;;;;;;;;5005324;28;20042;-89
2021/08/18 09:55:12;;;;;;;13.52;8.15;;;;;;;;;;5006770;28;20029;-89
2021/08/18 09:57:37;;;;;;;12.38;8.40;;;;;;;;;;5012587;28;20531;-90
2021/08/18 10:00:03;;;;;;;14.40;8.02;;;;;;;;;;5012784;28;20414;-89
2021/08/18 10:02:29;;;;;;;14.55;8.48;;;;;;;;;;5012398;28;20072;-90
2021/08/18 10:04:55;;;;;;;12.90;8.52;;;;;;;;;;5012539;28;20121;-89
2021/08/18 10:07:21;;;;;;;17.20;8.45;;;;;;;;;;5012387;28;20029;-90
2021/08/18 10:09:46;;;;;;;16.92;8.90;;;;;;;;;;5012460;28;20014;-89
2021/08/18 10:12:12;;;;;;;13.00;7.38;;;;;;;;;;5013858;28;20045;-89
2021/08/18 10:14:37;;;;;;;13.15;9.07;;;;;;;;;;5012772;28;20040;-89
2021/08/18 10:17:02;;;;;;;15.00;8.32;;;;;;;;;;5012412;28;20018;-89
2021/08/18 10:19:28;;;;;;;14.95;9.50;;;;;;;;;;5012020;28;20034;-90
2021/08/18 10:21:59;;;;;;;21.65;10.68;;;;;;;;;;5012162;28;20033;-89
2021/08/18 10:24:32;;;;;;;13.73;9.13;;;;;;;;;;5040916;28;20022;-89
2021/08/18 10:26:58;;;;;;;15.02;9.38;;;;;;;;;;5012391;28;20032;-90
2021/08/18 10:29:30;;;;;;;14.77;9.50;;;;;;;;;;5012252;28;20018;-89
2021/08/18 10:31:56;;;;;;;18.13;9.00;;;;;;;;;;5012273;28;20022;-89
2021/08/18 10:34:33;;;;;;;18.13;9.68;;;;;;;;;;5016640;28;20397;-89
2021/08/18 10:37:02;;;;;;;16.10;10.07;;;;;;;;;;5022807;28;20022;-90
2021/08/18 10:39:34;;;;;;;16.95;9.57;;;;;;;;;;5013356;28;20022;-89
2021/08/18 10:41:59;;;;;;;14.57;10.07;;;;;;;;;;5007599;28;20116;-90
2021/08/18 10:44:57;;;;;;;17.48;10.27;;;;;;;;;;5049017;28;20060;-89
2021/08/18 10:47:26;;;;;;;14.98;9.43;;;;;;;;;;5004647;28;20474;-89
2021/08/18 10:49:52;;;;;;;17.08;11.02;;;;;;;;;;5017689;28;20033;-89
2021/08/18 10:52:30;;;;;;;18.02;11.43;;;;;;;;;;5016302;28;20409;-90
2021/08/18 10:55:12;;;;;;;21.65;13.02;;;;;;;;;;5049601;28;20029;-89
2021/08/18 10:57:49;;;;;;;17.50;10.60;;;;;;;;;;5049066;28;20022;-89
2021/08/18 11:00:15;;;;;;;20.10;10.30;;;;;;;;;;5049060;28;20037;-89
2021/08/18 11:02:49;;;;;;;21.95;11.50;;;;;;;;;;5016092;28;20029;-89
2021/08/18 11:05:15;;;;;;;20.67;10.00;;;;;;;;;;5024756;28;20416;-89
2021/08/18 11:08:00;;;;;;;20.73;10.73;;;;;;;;;;5016013;28;20021;-89
2021/08/18 11:10:26;;;;;;;19.02;10.43;;;;;;;;;;5015886;28;20022;-89
2021/08/18 11:12:52;;;;;;;20.05;11.32;;;;;;;;;;5016066;28;20105;-89
2021/08/18 11:15:17;;;;;;;16.38;13.48;;;;;;;;;;5016944;28;20437;-89
2021/08/18 11:17:43;;;;;;;18.75;11.80;;;;;;;;;;5015714;28;20429;-89
2021/08/18 11:20:11;;;;;;;22.83;11.88;;;;;;;;;;5048813;28;20105;-89
2021/08/18 11:22:36;;;;;;;17.77;9.65;;;;;;;;;;5015692;28;20028;-89
2021/08/18 11:25:02;;;;;;;19.35;10.57;;;;;;;;;;5015586;28;20022;-89
2021/08/18 11:27:28;;;;;;;15.63;9.18;;;;;;;;;;5015784;28;20112;-89
2021/08/18 11:29:53;;;;;;;17.15;10.57;;;;;;;;;;5015114;28;20455;-89
2021/08/18 11:32:27;;;;;;;26.10;14.50;;;;;;;;;;5015598;28;20045;-89
2021/08/18 11:34:52;;;;;;;18.55;11.27;;;;;;;;;;5015222;28;20021;-90
2021/08/18 11:37:18;;;;;;;19.20;11.23;;;;;;;;;;5048690;28;20473;-89
2021/08/18 11:39:46;;;;;;;16.98;10.68;;;;;;;;;;5015008;28;20014;-90
2021/08/18 11:42:16;;;;;;;14.45;9.20;;;;;;;;;;5036923;28;20022;-89
2021/08/18 11:44:42;;;;;;;14.60;10.40;;;;;;;;;;5014706;28;20026;-89
2021/08/18 11:47:08;;;;;;;14.77;8.43;;;;;;;;;;5015061;28;20156;-89
2021/08/18 11:49:34;;;;;;;12.20;7.05;;;;;;;;;;5047482;28;20049;-89
2021/08/18 11:51:59;;;;;;;15.27;8.10;;;;;;;;;;5014247;28;20116;-89
2021/08/18 11:54:24;;;;;;;12.38;6.78;;;;;;;;;;5015099;28;20025;-89
2021/08/18 11:57:00;;;;;;;10.23;7.78;;;;;;;;;;5015154;28;20018;-89
2021/08/18 11:59:26;;;;;;;13.50;8.35;;;;;;;;;;5018163;28;20470;-89
2021/08/18 12:01:52;;;;;;;10.55;7.65;;;;;;;;;;5014911;28;20022;-89
2021/08/18 12:04:19;;;;;;;12.38;7.78;;;;;;;;;;5047947;28;20105;-89
2021/08/18 12:06:46;;;;;;;10.73;7.00;;;;;;;;;;5014803;28;20026;-89
2021/08/18 12:09:19;;;;;;;14.82;7.13;;;;;;;;;;5014706;28;20049;-89
2021/08/18 12:11:45;;;;;;;11.57;7.75;;;;;;;;;;5014902;28;20466;-89
2021/08/18 12:14:17;;;;;;;9.60;6.75;;;;;;;;;;5014893;28;20029;-89
2021/08/18 12:16:43;;;;;;;13.05;7.82;;;;;;;;;;5014306;28;20104;-89
2021/08/18 12:19:14;;;;;;;13.73;7.20;;;;;;;;;;5015529;28;20053;-89
2021/08/18 12:21:39;;;;;;;11.63;7.18;;;;;;;;;;5049221;28;20017;-89
2021/08/18 12:24:13;;;;;;;13.02;7.53;;;;;;;;;;5021360;28;20113;-89
2021/08/18 12:26:39;;;;;;;9.45;6.90;;;;;;;;;;5001741;28;20462;-89
2021/08/18 12:29:06;;;;;;;11.15;8.05;;;;;;;;;;5014044;28;20053;-89
2021/08/18 12:31:50;;;;;;;10.73;7.00;;;;;;;;;;5014145;28;20014;-89
2021/08/18 12:34:15;;;;;;;9.93;7.25;;;;;;;;;;5014305;28;20469;-89
2021/08/18 12:36:40;;;;;;;18.05;7.70;;;;;;;;;;5013981;28;20081;-89
2021/08/18 12:39:05;;;;;;;12.85;7.15;;;;;;;;;;5010750;28;20109;-89
2021/08/18 12:41:33;;;;;;;12.52;7.25;;;;;;;;;;5014126;28;20079;-89
2021/08/18 12:44:09;;;;;;;10.30;7.07;;;;;;;;;;5030804;28;20028;-89
2021/08/18 12:52:29;;;;;;;12.65;7.93;;;;;;;;;;5016435;28;19963;-89
2021/08/18 12:54:55;;;;;;;13.55;8.18;;;;;;;;;;5007324;28;20034;-89
2021/08/18 12:57:20;;;;;;;14.35;8.73;;;;;;;;;;5005983;28;20053;-89
2021/08/18 12:59:46;;;;;;;21.92;9.55;;;;;;;;;;5022279;28;20117;-89
2021/08/18 13:02:11;;;;;;;14.40;9.43;;;;;;;;;;5014708;28;20049;-89
2021/08/18 13:04:37;;;;;;;14.65;9.02;;;;;;;;;;5011695;28;20034;-89
2021/08/18 13:07:02;;;;;;;14.90;8.85;;;;;;;;;;5011796;28;20076;-89
2021/08/18 13:09:27;;;;;;;12.57;7.57;;;;;;;;;;5011266;28;20018;-89
2021/08/18 13:11:53;;;;;;;15.73;7.80;;;;;;;;;;5011271;28;20033;-90
2021/08/18 13:14:19;;;;;;;13.40;8.23;;;;;;;;;;5008935;28;20104;-90
2021/08/18 13:16:44;;;;;;;13.88;7.82;;;;;;;;;;5012505;28;20557;-88
2021/08/18 13:19:09;;;;;;;21.48;7.28;;;;;;;;;;5013201;28;20060;-89
2021/08/18 13:21:35;;;;;;;13.73;7.15;;;;;;;;;;5013505;28;20683;-89
2021/08/18 13:24:00;;;;;;;13.77;7.38;;;;;;;;;;5011517;28;20416;-89
2021/08/18 13:26:25;;;;;;;13.05;8.07;;;;;;;;;;5024730;28;20623;-89
2021/08/18 13:28:50;;;;;;;14.25;7.13;;;;;;;;;;5013261;28;20152;-89
2021/08/18 13:31:17;;;;;;;11.15;7.20;;;;;;;;;;5026251;28;20013;-89
2021/08/18 13:33:43;;;;;;;12.23;6.10;;;;;;;;;;5021614;28;20104;-89
2021/08/18 13:36:08;;;;;;;11.73;6.20;;;;;;;;;;5014558;28;20502;-89
2021/08/18 13:38:34;;;;;;;9.32;5.53;;;;;;;;;;5032977;28;20028;-89
2021/08/18 13:41:00;;;;;;;9.23;5.38;;;;;;;;;;5028069;28;20060;-88
2021/08/18 13:43:25;;;;;;;10.82;5.70;;;;;;;;;;5022614;28;20049;-87
2021/08/18 13:45:50;;;;;;;7.20;5.10;;;;;;;;;;5028341;28;20025;-89
2021/08/18 13:48:15;;;;;;;9.50;5.28;;;;;;;;;;5018070;28;20027;-89
2021/08/18 13:50:40;;;;;;;10.63;5.78;;;;;;;;;;5024809;28;20461;-89
2021/08/18 13:53:06;;;;;;;13.73;5.25;;;;;;;;;;5025197;28;20531;-90
2021/08/18 13:55:31;;;;;;;14.40;5.40;;;;;;;;;;5018937;28;20025;-89
2021/08/18 13:57:57;;;;;;;7.53;5.05;;;;;;;;;;5016729;28;20026;-90
2021/08/18 14:00:23;;;;;;;9.05;5.03;;;;;;;;;;5008420;28;20026;-91
2021/08/18 14:02:49;;;;;;;8.05;5.00;;;;;;;;;;5009260;28;20038;-92
2021/08/18 14:05:14;;;;;;;15.40;5.10;;;;;;;;;;5022643;28;20022;-91
2021/08/18 14:07:39;;;;;;;6.60;4.43;;;;;;;;;;5012786;28;20026;-91
2021/08/18 14:10:05;;;;;;;10.35;5.13;;;;;;;;;;5026343;28;20018;-92
2021/08/18 14:12:30;;;;;;;8.75;5.43;;;;;;;;;;5013619;28;20017;-91
2021/08/18 14:14:55;;;;;;;7.78;5.10;;;;;;;;;;5012940;28;20029;-90
2021/08/18 14:17:21;;;;;;;10.10;5.43;;;;;;;;;;5015901;28;20017;-91
2021/08/18 14:19:46;;;;;;;8.35;5.35;;;;;;;;;;5012814;28;20097;-92
2021/08/18 14:22:11;;;;;;;8.18;5.45;;;;;;;;;;5013605;28;20377;-91